createdAt,value
2023-01-19T00:01:27.236Z,94970.66
2023-01-19T00:03:54.742Z,94967.56
2023-01-19T00:06:22.272Z,94969.06
2023-01-19T00:08:51.153Z,94978.31
2023-01-19T00:11:19.413Z,94978.41
2023-01-19T00:13:53.580Z,94978.66
2023-01-19T00:16:23.337Z,94987.94
2023-01-19T00:18:53.404Z,94988.16
2023-01-19T00:21:22.440Z,94991.25
2023-01-19T00:23:52.472Z,94994.78
2023-01-19T00:26:21.959Z,95010.63
2023-01-19T00:28:50.232Z,95006.03
2023-01-19T00:31:20.470Z,95004.13
2023-01-19T00:33:49.230Z,95007.75
2023-01-19T00:36:18.102Z,95017.13
2023-01-19T00:38:45.751Z,95011.66
2023-01-19T00:41:13.246Z,95011.47
2023-01-19T00:43:40.763Z,95023.66
2023-01-19T00:46:08.347Z,95027.59
2023-01-19T00:48:35.919Z,95023.88
2023-01-19T00:51:03.399Z,95026.97
2023-01-19T00:53:32.525Z,95026.19
2023-01-19T00:56:00.173Z,95020.72
2023-01-19T00:58:27.701Z,95025.31
2023-01-19T01:00:57.439Z,95027.28
2023-01-19T01:03:27.874Z,95026.72
2023-01-19T01:05:55.547Z,95034.50
2023-01-19T01:08:23.050Z,95036.34
2023-01-19T01:10:52.412Z,95044.56
2023-01-19T01:13:22.194Z,95048.25
2023-01-19T01:15:52.785Z,95048.75
2023-01-19T01:18:21.050Z,95047.09
2023-01-19T01:20:48.778Z,95052.41
2023-01-19T01:23:16.354Z,95058.34
2023-01-19T01:25:43.898Z,95062.09
2023-01-19T01:28:12.750Z,95059.34
2023-01-19T01:30:41.059Z,95061.88
2023-01-19T01:33:08.736Z,95068.16
2023-01-19T01:35:36.405Z,95076.56
2023-01-19T01:38:03.950Z,95074.00
2023-01-19T01:40:31.457Z,95086.09
2023-01-19T01:42:59.191Z,95087.47
2023-01-19T01:45:33.532Z,95092.91
2023-01-19T01:48:07.405Z,95083.22
2023-01-19T01:50:38.441Z,95085.94
2023-01-19T01:53:10.893Z,95088.44
2023-01-19T01:55:43.500Z,95086.94
2023-01-19T01:58:12.257Z,95097.91
2023-01-19T02:00:55.514Z,95105.63
2023-01-19T02:03:25.132Z,95105.88
2023-01-19T02:05:56.739Z,95110.09
2023-01-19T02:08:47.074Z,95104.19
2023-01-19T02:11:32.533Z,95092.06
2023-01-19T02:14:00.097Z,95097.59
2023-01-19T02:16:29.917Z,95101.28
2023-01-19T02:18:58.356Z,95107.47
2023-01-19T02:21:36.377Z,95112.47
2023-01-19T02:24:06.001Z,95100.72
2023-01-19T02:26:38.380Z,95097.41
2023-01-19T02:29:08.960Z,95104.19
2023-01-19T02:31:38.945Z,95111.03
2023-01-19T02:34:09.051Z,95106.72
2023-01-19T02:36:39.904Z,95103.78
2023-01-19T02:39:10.009Z,95102.22
2023-01-19T02:41:42.922Z,95102.63
2023-01-19T02:44:12.062Z,95105.97
2023-01-19T02:46:40.999Z,95104.81
2023-01-19T02:49:08.762Z,95111.09
2023-01-19T02:51:36.473Z,95106.38
2023-01-19T02:54:26.969Z,95111.94
2023-01-19T02:57:11.567Z,95116.41
2023-01-19T02:59:54.580Z,95120.88
2023-01-19T03:02:34.579Z,95112.47
2023-01-19T03:05:21.779Z,95117.78
2023-01-19T03:07:58.396Z,95118.84
2023-01-19T03:10:36.983Z,95117.38
2023-01-19T03:13:11.811Z,95110.88
2023-01-19T03:15:46.648Z,95116.97
2023-01-19T03:18:16.968Z,95113.84
2023-01-19T03:20:45.986Z,95113.41
2023-01-19T03:23:16.086Z,95118.72
2023-01-19T03:25:48.282Z,95112.53
2023-01-19T03:28:20.185Z,95117.00
2023-01-19T03:30:55.506Z,95122.91
2023-01-19T03:33:27.385Z,95120.19
2023-01-19T03:36:03.499Z,95126.19
2023-01-19T03:38:35.440Z,95129.34
2023-01-19T03:41:07.818Z,95131.97
2023-01-19T03:43:38.148Z,95140.47
2023-01-19T03:46:07.143Z,95137.19
2023-01-19T03:48:34.910Z,95138.72
2023-01-19T03:51:05.071Z,95135.34
2023-01-19T03:53:32.611Z,95136.78
2023-01-19T03:56:00.330Z,95128.09
2023-01-19T03:58:29.296Z,95125.50
2023-01-19T04:00:56.817Z,95128.03
2023-01-19T04:03:24.537Z,95127.81
2023-01-19T04:05:52.053Z,95120.97
2023-01-19T04:08:19.569Z,95133.13
2023-01-19T04:10:47.051Z,95129.00
2023-01-19T04:13:14.541Z,95127.34
2023-01-19T04:15:43.371Z,95131.44
2023-01-19T04:18:11.737Z,95136.31
2023-01-19T04:20:39.335Z,95144.09
2023-01-19T04:23:07.118Z,95138.75
2023-01-19T04:25:34.618Z,95132.84
2023-01-19T04:28:02.100Z,95134.00
2023-01-19T04:30:29.599Z,95131.19
2023-01-19T04:33:00.548Z,95136.25
2023-01-19T04:35:28.595Z,95135.44
2023-01-19T04:37:56.128Z,95133.69
2023-01-19T04:40:23.619Z,95138.03
2023-01-19T04:42:51.107Z,95146.22
2023-01-19T04:45:18.583Z,95144.09
2023-01-19T04:47:46.075Z,95141.50
2023-01-19T04:50:15.140Z,95148.22
2023-01-19T04:52:42.641Z,95155.22
2023-01-19T04:55:11.233Z,95149.75
2023-01-19T04:57:38.742Z,95147.09
2023-01-19T05:00:07.670Z,95139.50
2023-01-19T05:02:36.006Z,95129.72
2023-01-19T05:05:04.013Z,95143.38
2023-01-19T05:07:32.823Z,95139.53
2023-01-19T05:10:00.472Z,95143.31
2023-01-19T05:12:28.075Z,95146.66
2023-01-19T05:14:55.563Z,95149.22
2023-01-19T05:17:23.104Z,95148.22
2023-01-19T05:19:50.621Z,95159.88
2023-01-19T05:22:18.164Z,95153.94
2023-01-19T05:24:47.021Z,95152.19
2023-01-19T05:27:14.500Z,95142.47
2023-01-19T05:29:41.987Z,95149.13
2023-01-19T05:32:09.555Z,95136.91
2023-01-19T05:34:37.107Z,95152.25
2023-01-19T05:37:04.604Z,95155.13
2023-01-19T05:39:32.142Z,95150.16
2023-01-19T05:42:01.009Z,95154.38
2023-01-19T05:44:28.520Z,95157.25
2023-01-19T05:46:56.088Z,95153.28
2023-01-19T05:49:23.648Z,95157.50
2023-01-19T05:51:51.125Z,95144.66
2023-01-19T05:54:18.665Z,95153.44
2023-01-19T05:56:46.151Z,95152.59
2023-01-19T05:59:17.827Z,95144.63
2023-01-19T06:01:45.363Z,95150.13
2023-01-19T06:04:12.888Z,95163.69
2023-01-19T06:06:40.372Z,95153.81
2023-01-19T06:09:08.293Z,95154.13
2023-01-19T06:11:35.766Z,95160.00
2023-01-19T06:14:03.374Z,95160.59
2023-01-19T06:16:32.332Z,95163.44
2023-01-19T06:19:00.280Z,95162.66
2023-01-19T06:21:27.774Z,95169.66
2023-01-19T06:23:55.243Z,95175.47
2023-01-19T06:26:22.722Z,95181.25
2023-01-19T06:28:52.049Z,95178.63
2023-01-19T06:31:19.667Z,95180.53
2023-01-19T06:33:48.522Z,95185.03
2023-01-19T06:36:15.985Z,95186.41
2023-01-19T06:38:43.489Z,95189.34
2023-01-19T06:41:11.010Z,95196.63
2023-01-19T06:43:38.496Z,95203.66
2023-01-19T06:46:06.599Z,95216.19
2023-01-19T06:48:34.118Z,95222.41
2023-01-19T06:51:03.026Z,95225.75
2023-01-19T06:53:30.520Z,95225.88
2023-01-19T06:56:01.630Z,95235.16
2023-01-19T06:58:31.263Z,95244.06
2023-01-19T07:01:02.533Z,95244.69
2023-01-19T07:03:30.446Z,95245.25
2023-01-19T07:05:57.966Z,95256.44
2023-01-19T07:08:26.994Z,95256.59
2023-01-19T07:11:26.056Z,95258.88
2023-01-19T07:13:51.432Z,95267.81
2023-01-19T07:16:19.003Z,95272.38
2023-01-19T07:18:49.599Z,95265.97
2023-01-19T07:21:17.313Z,95279.00
2023-01-19T07:23:49.154Z,95286.56
2023-01-19T07:26:18.566Z,95286.00
2023-01-19T07:28:47.459Z,95281.84
2023-01-19T07:31:16.457Z,95289.28
2023-01-19T07:33:44.080Z,95284.00
2023-01-19T07:36:11.859Z,95288.69
2023-01-19T07:38:39.417Z,95293.31
2023-01-19T07:41:10.088Z,95290.44
2023-01-19T07:43:37.684Z,95280.59
2023-01-19T07:46:07.409Z,95285.09
2023-01-19T07:48:34.977Z,95288.53
2023-01-19T07:51:05.310Z,95290.47
2023-01-19T07:53:33.134Z,95296.22
2023-01-19T07:56:00.647Z,95296.22
2023-01-19T07:58:29.460Z,95306.22
2023-01-19T08:00:57.026Z,95312.63
2023-01-19T08:03:24.710Z,95308.75
2023-01-19T08:05:53.615Z,95313.44
2023-01-19T08:08:21.431Z,95312.00
2023-01-19T08:10:51.122Z,95311.53
2023-01-19T08:13:18.707Z,95314.88
2023-01-19T08:15:50.462Z,95312.50
2023-01-19T08:18:18.349Z,95316.31
2023-01-19T08:20:45.922Z,95319.56
2023-01-19T08:23:13.484Z,95304.47
2023-01-19T08:25:44.336Z,95320.44
2023-01-19T08:28:13.739Z,95321.25
2023-01-19T08:30:44.896Z,95323.88
2023-01-19T08:33:13.988Z,95327.22
2023-01-19T08:35:43.534Z,95321.22
2023-01-19T08:38:11.810Z,95317.22
2023-01-19T08:40:40.770Z,95322.00
2023-01-19T08:43:10.329Z,95328.25
2023-01-19T08:45:41.350Z,95330.03
2023-01-19T08:48:09.886Z,95329.91
2023-01-19T08:50:38.819Z,95337.47
2023-01-19T08:53:07.314Z,95336.53
2023-01-19T08:55:37.110Z,95339.00
2023-01-19T08:58:05.907Z,95337.66
2023-01-19T09:00:34.920Z,95331.53
2023-01-19T09:03:04.162Z,95332.66
2023-01-19T09:05:35.542Z,95336.38
2023-01-19T09:08:08.152Z,95333.63
2023-01-19T09:10:37.710Z,95340.50
2023-01-19T09:13:07.063Z,95337.75
2023-01-19T09:15:37.369Z,95334.59
2023-01-19T09:18:05.854Z,95341.63
2023-01-19T09:20:34.767Z,95341.84
2023-01-19T09:23:03.721Z,95352.50
2023-01-19T09:25:31.554Z,95340.47
2023-01-19T09:28:00.795Z,95346.53
2023-01-19T09:30:29.189Z,95342.31
2023-01-19T09:32:58.685Z,95334.06
2023-01-19T09:35:26.928Z,95340.97
2023-01-19T09:37:54.388Z,95339.28
2023-01-19T09:40:23.385Z,95331.25
2023-01-19T09:42:56.207Z,95331.66
2023-01-19T09:45:31.148Z,95337.75
2023-01-19T09:48:01.239Z,95333.75
2023-01-19T09:50:35.277Z,95332.94
2023-01-19T09:53:13.715Z,95330.72
2023-01-19T09:55:43.545Z,95330.16
2023-01-19T09:58:16.140Z,95331.94
2023-01-19T10:00:48.733Z,95336.53
2023-01-19T10:03:17.753Z,95329.19
2023-01-19T10:05:49.186Z,95330.31
2023-01-19T10:08:26.360Z,95332.41
2023-01-19T10:10:57.797Z,95336.59
2023-01-19T10:13:42.036Z,95334.34
2023-01-19T10:16:22.855Z,95328.50
2023-01-19T10:18:52.378Z,95335.06
2023-01-19T10:21:24.086Z,95336.53
2023-01-19T10:23:54.286Z,95321.28
2023-01-19T10:26:25.458Z,95323.31
2023-01-19T10:28:56.686Z,95325.75
2023-01-19T10:31:25.723Z,95321.25
2023-01-19T10:33:54.441Z,95333.53
2023-01-19T10:36:34.675Z,95336.81
2023-01-19T10:39:04.256Z,95332.75
2023-01-19T10:41:41.545Z,95330.88
2023-01-19T10:44:10.758Z,95333.59
2023-01-19T10:46:43.714Z,95332.78
2023-01-19T10:49:25.882Z,95333.69
2023-01-19T10:51:54.775Z,95338.50
2023-01-19T10:54:23.813Z,95331.78
2023-01-19T10:56:55.166Z,95329.47
2023-01-19T10:59:32.387Z,95329.91
2023-01-19T11:02:17.582Z,95326.00
2023-01-19T11:04:48.958Z,95327.50
2023-01-19T11:07:21.299Z,95327.16
2023-01-19T11:09:49.467Z,95326.81
2023-01-19T11:12:21.011Z,95325.63
2023-01-19T11:14:50.194Z,95332.63
2023-01-19T11:17:26.903Z,95322.03
2023-01-19T11:19:57.995Z,95320.75
2023-01-19T11:22:29.041Z,95317.34
2023-01-19T11:25:01.153Z,95313.59
2023-01-19T11:27:32.216Z,95312.19
2023-01-19T11:30:10.358Z,95318.91
2023-01-19T11:32:37.925Z,95313.19
2023-01-19T11:35:34.234Z,95311.00
2023-01-19T11:38:19.342Z,95304.13
2023-01-19T11:40:56.248Z,95306.53
2023-01-19T11:43:36.649Z,95297.84
2023-01-19T11:46:15.305Z,95307.97
2023-01-19T11:48:47.731Z,95298.78
2023-01-19T11:51:19.705Z,95301.16
2023-01-19T11:53:52.369Z,95287.31
2023-01-19T11:56:23.785Z,95291.34
2023-01-19T11:58:52.655Z,95283.81
2023-01-19T12:01:24.462Z,95283.56
2023-01-19T12:03:59.455Z,95281.25
2023-01-19T12:06:32.134Z,95289.56
2023-01-19T12:09:03.800Z,95285.38
2023-01-19T12:11:35.306Z,95278.88
2023-01-19T12:14:05.337Z,95296.31
2023-01-19T12:16:36.727Z,95293.75
2023-01-19T12:19:07.638Z,95286.31
2023-01-19T12:21:35.117Z,95276.06
2023-01-19T12:24:12.462Z,95271.78
2023-01-19T12:26:49.074Z,95275.44
2023-01-19T12:29:21.778Z,95274.78
2023-01-19T12:32:20.463Z,95278.75
2023-01-19T12:34:48.638Z,95281.38
2023-01-19T12:37:39.194Z,95275.28
2023-01-19T12:40:22.855Z,95275.47
2023-01-19T12:42:57.434Z,95278.78
2023-01-19T12:45:31.892Z,95271.91
2023-01-19T12:48:00.036Z,95270.97
2023-01-19T12:50:29.558Z,95273.91
2023-01-19T12:52:59.573Z,95273.72
2023-01-19T12:55:31.172Z,95278.75
2023-01-19T12:58:02.948Z,95273.22
2023-01-19T13:00:43.151Z,95282.31
2023-01-19T13:03:46.616Z,95280.22
2023-01-19T13:06:14.517Z,95280.78
2023-01-19T13:08:59.516Z,95290.41
2023-01-19T13:11:31.332Z,95275.66
2023-01-19T13:14:36.557Z,95280.06
2023-01-19T13:17:18.249Z,95283.78
2023-01-19T13:19:51.350Z,95280.63
2023-01-19T13:22:53.785Z,95270.13
2023-01-19T13:25:36.409Z,95281.84
2023-01-19T13:28:10.020Z,95270.31
2023-01-19T13:30:41.146Z,95275.66
2023-01-19T13:33:22.470Z,95277.56
2023-01-19T13:35:55.709Z,95274.84
2023-01-19T13:38:24.687Z,95276.38
2023-01-19T13:40:54.293Z,95281.50
2023-01-19T13:43:28.140Z,95279.06
2023-01-19T13:45:56.925Z,95285.59
2023-01-19T13:48:26.303Z,95284.09
2023-01-19T13:50:59.225Z,95287.28
2023-01-19T13:53:26.805Z,95284.13
2023-01-19T13:56:07.833Z,95291.94
2023-01-19T13:58:35.413Z,95285.44
2023-01-19T14:01:03.001Z,95291.72
2023-01-19T14:03:32.001Z,95290.66
2023-01-19T14:05:59.544Z,95294.13
2023-01-19T14:08:27.212Z,95291.78
2023-01-19T14:11:02.861Z,95294.75
2023-01-19T14:13:32.523Z,95293.66
2023-01-19T14:16:02.285Z,95292.59
2023-01-19T14:18:32.696Z,95305.50
2023-01-19T14:21:03.248Z,95297.97
2023-01-19T14:23:39.440Z,95294.94
2023-01-19T14:26:07.707Z,95301.28
2023-01-19T14:28:39.283Z,95297.38
2023-01-19T14:31:20.708Z,95301.28
2023-01-19T14:33:51.294Z,95301.91
2023-01-19T14:36:29.610Z,95299.84
2023-01-19T14:39:00.222Z,95302.06
2023-01-19T14:41:35.833Z,95299.25
2023-01-19T14:44:08.266Z,95301.03
2023-01-19T14:46:35.831Z,95302.31
2023-01-19T14:49:07.200Z,95303.63
2023-01-19T14:51:34.804Z,95304.81
2023-01-19T14:54:03.824Z,95309.34
2023-01-19T14:56:33.986Z,95307.94
2023-01-19T14:59:03.152Z,95307.69
2023-01-19T15:01:31.162Z,95303.88
2023-01-19T15:03:59.117Z,95306.41
2023-01-19T15:06:27.975Z,95310.78
2023-01-19T15:08:56.118Z,95303.16
2023-01-19T15:11:27.446Z,95303.25
2023-01-19T15:13:55.305Z,95307.81
2023-01-19T15:16:24.228Z,95306.72
2023-01-19T15:18:51.793Z,95302.06
2023-01-19T15:21:23.059Z,95305.22
2023-01-19T15:23:51.896Z,95311.44
2023-01-19T15:26:21.593Z,95312.69
2023-01-19T15:28:50.269Z,95307.84
2023-01-19T15:31:20.606Z,95311.28
2023-01-19T15:33:48.446Z,95313.75
2023-01-19T15:36:18.629Z,95312.53
2023-01-19T15:38:46.197Z,95314.72
2023-01-19T15:41:21.846Z,95309.78
2023-01-19T15:43:50.672Z,95315.69
2023-01-19T15:46:20.656Z,95311.84
2023-01-19T15:48:48.382Z,95317.91
2023-01-19T15:51:17.870Z,95322.84
2023-01-19T15:53:46.126Z,95321.34
2023-01-19T15:56:17.171Z,95326.44
2023-01-19T15:58:45.086Z,95317.38
2023-01-19T16:01:14.521Z,95319.00
2023-01-19T16:03:42.598Z,95319.44
2023-01-19T16:06:10.784Z,95311.28
2023-01-19T16:08:38.919Z,95319.28
2023-01-19T16:11:07.062Z,95312.28
2023-01-19T16:13:36.040Z,95319.28
2023-01-19T16:16:04.650Z,95317.06
2023-01-19T16:18:32.149Z,95324.53
2023-01-19T16:20:59.722Z,95328.94
2023-01-19T16:23:27.210Z,95324.38
2023-01-19T16:25:59.985Z,95327.53
2023-01-19T16:28:28.139Z,95331.13
2023-01-19T16:30:56.985Z,95321.50
2023-01-19T16:33:24.445Z,95331.16
2023-01-19T16:35:52.160Z,95331.41
2023-01-19T16:38:20.099Z,95344.81
2023-01-19T16:40:48.006Z,95342.97
2023-01-19T16:43:16.462Z,95342.94
2023-01-19T16:45:59.455Z,95341.88
2023-01-19T16:48:27.819Z,95343.09
2023-01-19T16:51:02.716Z,95345.09
2023-01-19T16:53:31.661Z,95348.84
2023-01-19T16:55:59.344Z,95349.34
2023-01-19T16:58:26.810Z,95349.22
2023-01-19T17:00:54.385Z,95342.19
2023-01-19T17:03:23.318Z,95347.66
2023-01-19T17:05:51.577Z,95348.22
2023-01-19T17:08:19.896Z,95349.06
2023-01-19T17:10:48.569Z,95347.66
2023-01-19T17:13:16.405Z,95346.00
2023-01-19T17:15:44.165Z,95347.84
2023-01-19T17:18:11.881Z,95352.59
2023-01-19T17:20:40.717Z,95358.38
2023-01-19T17:23:08.192Z,95362.28
2023-01-19T17:25:35.666Z,95363.41
2023-01-19T17:28:03.159Z,95365.88
2023-01-19T17:30:30.767Z,95361.19
2023-01-19T17:32:58.363Z,95355.31
2023-01-19T17:35:25.899Z,95370.59
2023-01-19T17:37:55.940Z,95373.81
2023-01-19T17:40:25.963Z,95365.22
2023-01-19T17:42:53.675Z,95367.59
2023-01-19T17:45:21.190Z,95371.69
2023-01-19T17:47:49.583Z,95372.97
2023-01-19T17:50:17.488Z,95367.50
2023-01-19T17:52:45.081Z,95372.66
2023-01-19T17:55:13.929Z,95374.97
2023-01-19T17:57:41.424Z,95378.56
2023-01-19T18:00:10.574Z,95376.38
2023-01-19T18:02:38.342Z,95371.13
2023-01-19T18:05:06.624Z,95382.41
2023-01-19T18:07:34.096Z,95376.91
2023-01-19T18:10:01.559Z,95381.59
2023-01-19T18:12:31.284Z,95387.13
2023-01-19T18:14:58.764Z,95378.28
2023-01-19T18:17:26.776Z,95382.41
2023-01-19T18:19:55.210Z,95377.63
2023-01-19T18:22:22.886Z,95377.91
2023-01-19T18:24:50.434Z,95380.63
2023-01-19T18:27:17.920Z,95378.13
2023-01-19T18:29:46.737Z,95385.47
2023-01-19T18:32:14.247Z,95376.88
2023-01-19T18:34:41.743Z,95378.84
2023-01-19T18:37:09.208Z,95374.41
2023-01-19T18:39:36.759Z,95378.56
2023-01-19T18:42:04.512Z,95379.38
2023-01-19T18:44:32.023Z,95381.75
2023-01-19T18:47:00.826Z,95377.84
2023-01-19T18:49:28.302Z,95373.00
2023-01-19T18:51:56.013Z,95379.13
2023-01-19T18:54:23.506Z,95388.09
2023-01-19T18:56:51.405Z,95386.03
2023-01-19T18:59:18.908Z,95391.53
2023-01-19T19:01:46.450Z,95386.53
2023-01-19T19:04:15.304Z,95385.19
2023-01-19T19:06:42.806Z,95371.94
2023-01-19T19:09:10.322Z,95374.84
2023-01-19T19:11:37.844Z,95380.50
2023-01-19T19:14:05.419Z,95379.81
2023-01-19T19:16:36.164Z,95387.13
2023-01-19T19:19:04.917Z,95386.13
2023-01-19T19:21:33.754Z,95374.97
2023-01-19T19:24:01.319Z,95382.97
2023-01-19T19:26:29.575Z,95377.19
2023-01-19T19:28:57.853Z,95387.66
2023-01-19T19:31:26.797Z,95384.50
2023-01-19T19:33:55.039Z,95388.78
2023-01-19T19:36:24.431Z,95389.31
2023-01-19T19:38:53.254Z,95386.00
2023-01-19T19:41:22.866Z,95388.47
2023-01-19T19:43:50.934Z,95379.09
2023-01-19T19:46:20.076Z,95387.59
2023-01-19T19:48:47.861Z,95386.44
2023-01-19T19:51:22.405Z,95392.78
2023-01-19T19:53:51.818Z,95394.00
2023-01-19T19:56:22.180Z,95389.88
2023-01-19T19:58:50.843Z,95390.88
2023-01-19T20:01:20.881Z,95394.44
2023-01-19T20:03:48.732Z,95389.22
2023-01-19T20:06:20.566Z,95399.78
2023-01-19T20:08:48.545Z,95400.34
2023-01-19T20:11:17.785Z,95406.75
2023-01-19T20:13:47.609Z,95411.63
2023-01-19T20:16:17.525Z,95408.72
2023-01-19T20:18:48.434Z,95410.06
2023-01-19T20:21:18.222Z,95418.47
2023-01-19T20:23:48.889Z,95414.97
2023-01-19T20:26:19.089Z,95406.91
2023-01-19T20:28:48.612Z,95417.22
2023-01-19T20:31:33.615Z,95417.63
2023-01-19T20:34:08.093Z,95419.16
2023-01-19T20:36:36.185Z,95419.47
2023-01-19T20:39:09.466Z,95426.44
2023-01-19T20:41:43.086Z,95419.22
2023-01-19T20:44:13.050Z,95426.09
2023-01-19T20:46:40.808Z,95426.94
2023-01-19T20:49:08.462Z,95427.81
2023-01-19T20:51:37.337Z,95423.94
2023-01-19T20:54:05.299Z,95428.78
2023-01-19T20:56:32.788Z,95429.47
2023-01-19T20:59:01.950Z,95427.56
2023-01-19T21:01:31.080Z,95429.06
2023-01-19T21:03:58.783Z,95433.25
2023-01-19T21:06:26.602Z,95427.31
2023-01-19T21:08:54.123Z,95422.69
2023-01-19T21:11:23.956Z,95428.31
2023-01-19T21:13:55.444Z,95417.13
2023-01-19T21:16:23.536Z,95423.13
2023-01-19T21:18:52.691Z,95422.69
2023-01-19T21:21:29.806Z,95427.72
2023-01-19T21:23:59.183Z,95428.69
2023-01-19T21:26:29.599Z,95435.34
2023-01-19T21:28:57.337Z,95426.81
2023-01-19T21:31:27.358Z,95429.91
2023-01-19T21:33:57.030Z,95436.47
2023-01-19T21:36:24.891Z,95425.47
2023-01-19T21:38:52.731Z,95436.44
2023-01-19T21:41:35.738Z,95438.38
2023-01-19T21:44:03.591Z,95439.50
2023-01-19T21:46:33.046Z,95441.16
2023-01-19T21:49:03.370Z,95440.34
2023-01-19T21:51:33.357Z,95435.25
2023-01-19T21:54:01.043Z,95446.72
2023-01-19T21:56:29.667Z,95437.75
2023-01-19T21:58:58.166Z,95436.25
2023-01-19T22:01:25.937Z,95435.94
2023-01-19T22:03:54.926Z,95438.56
2023-01-19T22:06:24.466Z,95429.03
2023-01-19T22:08:51.967Z,95436.50
2023-01-19T22:11:20.968Z,95432.94
2023-01-19T22:13:48.579Z,95434.03
2023-01-19T22:16:18.344Z,95426.00
2023-01-19T22:18:47.133Z,95431.50
2023-01-19T22:21:16.570Z,95430.59
2023-01-19T22:23:48.569Z,95433.03
2023-01-19T22:26:16.260Z,95432.50
2023-01-19T22:28:43.843Z,95434.72
2023-01-19T22:31:13.615Z,95438.16
2023-01-19T22:33:41.851Z,95430.97
2023-01-19T22:36:15.443Z,95432.34
2023-01-19T22:38:45.317Z,95429.75
2023-01-19T22:41:17.462Z,95434.84
2023-01-19T22:43:45.150Z,95435.38
2023-01-19T22:46:12.931Z,95424.06
2023-01-19T22:48:41.316Z,95426.84
2023-01-19T22:51:09.091Z,95437.63
2023-01-19T22:53:36.659Z,95429.59
2023-01-19T22:56:13.832Z,95425.44
2023-01-19T22:58:41.460Z,95432.41
2023-01-19T23:01:10.106Z,95435.31
2023-01-19T23:03:37.816Z,95444.44
2023-01-19T23:06:06.733Z,95440.19
2023-01-19T23:08:35.101Z,95437.31
2023-01-19T23:11:06.076Z,95442.84
2023-01-19T23:13:35.395Z,95447.69
2023-01-19T23:16:03.626Z,95455.53
2023-01-19T23:18:31.696Z,95458.00
2023-01-19T23:21:03.721Z,95457.75
2023-01-19T23:23:31.297Z,95465.19
2023-01-19T23:26:02.647Z,95466.56
2023-01-19T23:28:30.360Z,95472.03
2023-01-19T23:30:59.273Z,95464.19
2023-01-19T23:33:27.024Z,95475.63
2023-01-19T23:35:55.987Z,95463.72
2023-01-19T23:38:23.471Z,95473.53
2023-01-19T23:40:51.006Z,95462.94
2023-01-19T23:43:18.509Z,95470.41
2023-01-19T23:45:46.015Z,95473.19
2023-01-19T23:48:14.822Z,95470.72
2023-01-19T23:50:42.327Z,95468.97
2023-01-19T23:53:09.850Z,95462.06
2023-01-19T23:55:37.341Z,95468.28
2023-01-19T23:58:04.867Z,95468.19
